Time;durP1;ratioP1;P1;durP2;ratioP2;P2;SDS_P1;SDS_P2;PMS_P1;PMS_P2;Temp;Humidity;BMP_temperature;BMP_pressure;BME280_temperature;BME280_humidity;BME280_pressure;Samples;Min_cycle;Max_cycle;Signal;HPM_P1;HPM_P2
2024/01/28 00:01:17;;;;;;;13.20;3.58;;;3.60;99.90;;;;;;6121863;23;20022;-90
2024/01/28 00:03:43;;;;;;;12.05;4.22;;;3.60;99.90;;;;;;6121413;23;20018;-90
2024/01/28 00:06:09;;;;;;;15.02;5.10;;;3.60;99.90;;;;;;6121388;23;20018;-90
2024/01/28 00:08:34;;;;;;;17.20;4.57;;;3.60;99.90;;;;;;6146513;23;20041;-90
2024/01/28 00:11:00;;;;;;;10.90;3.70;;;3.60;99.90;;;;;;6123185;23;20085;-90
2024/01/28 00:13:25;;;;;;;13.93;3.85;;;3.50;99.90;;;;;;6097298;23;20021;-91
2024/01/28 00:15:55;;;;;;;12.07;4.55;;;3.50;99.90;;;;;;6096874;23;20018;-90
2024/01/28 00:18:21;;;;;;;12.57;4.75;;;3.50;99.90;;;;;;6097122;23;20025;-90
2024/01/28 00:20:47;;;;;;;14.18;4.45;;;3.50;99.90;;;;;;6121736;23;20011;-90
2024/01/28 00:23:13;;;;;;;11.57;4.10;;;3.40;99.90;;;;;;6097307;23;20014;-90
2024/01/28 00:25:38;;;;;;;17.33;4.80;;;3.40;99.90;;;;;;6096963;23;20013;-90
2024/01/28 00:28:04;;;;;;;16.05;5.05;;;3.30;99.90;;;;;;6121113;23;20028;-90
2024/01/28 00:30:32;;;;;;;13.20;6.10;;;3.20;99.90;;;;;;6123221;23;20014;-91
2024/01/28 00:32:58;;;;;;;13.27;6.55;;;3.20;99.90;;;;;;6121744;23;20021;-91
2024/01/28 00:35:24;;;;;;;13.27;5.25;;;3.10;99.90;;;;;;6096404;23;20014;-90
2024/01/28 00:37:49;;;;;;;8.65;3.25;;;3.10;99.90;;;;;;6121210;23;20014;-90
2024/01/28 00:40:15;;;;;;;10.32;3.97;;;3.00;99.90;;;;;;6123481;23;20384;-90
2024/01/28 00:42:41;;;;;;;12.48;3.85;;;3.00;99.90;;;;;;6121672;23;20096;-90
2024/01/28 00:45:07;;;;;;;17.55;3.90;;;2.90;99.90;;;;;;6123152;23;20290;-90
2024/01/28 00:47:32;;;;;;;11.10;3.95;;;2.90;99.90;;;;;;6096703;23;20045;-91
2024/01/28 00:49:58;;;;;;;15.88;4.30;;;2.90;99.90;;;;;;6121867;23;20038;-90
2024/01/28 00:52:24;;;;;;;9.68;3.33;;;2.90;99.90;;;;;;6096582;23;20093;-90
2024/01/28 00:54:49;;;;;;;10.07;3.78;;;2.80;99.90;;;;;;6096867;23;20137;-90
2024/01/28 00:57:15;;;;;;;16.70;4.35;;;2.80;99.90;;;;;;6096373;23;20024;-92
2024/01/28 00:59:40;;;;;;;14.13;4.65;;;2.70;99.90;;;;;;6121509;23;20010;-90
2024/01/28 01:02:06;;;;;;;12.48;5.15;;;2.70;99.90;;;;;;6096355;23;20040;-91
2024/01/28 01:04:31;;;;;;;14.43;4.93;;;2.70;99.90;;;;;;6120901;23;20138;-90
2024/01/28 01:06:57;;;;;;;19.20;4.90;;;2.70;99.90;;;;;;6123005;23;20014;-90
2024/01/28 01:09:23;;;;;;;12.32;4.85;;;2.60;99.90;;;;;;6121926;23;20041;-90
2024/01/28 01:11:48;;;;;;;19.67;5.20;;;2.60;99.90;;;;;;6122418;23;20357;-90
2024/01/28 01:14:14;;;;;;;10.27;4.00;;;2.60;99.90;;;;;;6123321;23;20018;-91
2024/01/28 01:16:39;;;;;;;13.35;4.45;;;2.60;99.90;;;;;;6121467;23;20077;-90
2024/01/28 01:19:05;;;;;;;11.77;5.03;;;2.50;99.90;;;;;;6096393;23;20018;-90
2024/01/28 01:21:31;;;;;;;11.57;4.18;;;2.50;99.90;;;;;;6121044;23;20092;-90
2024/01/28 01:23:57;;;;;;;12.45;4.53;;;2.50;99.90;;;;;;6120762;23;20060;-90
2024/01/28 01:26:22;;;;;;;14.25;4.82;;;2.50;99.90;;;;;;6120999;23;20014;-90
2024/01/28 01:28:48;;;;;;;11.13;4.28;;;2.50;99.90;;;;;;6096668;23;20450;-91
2024/01/28 01:31:13;;;;;;;9.57;4.07;;;2.60;99.90;;;;;;6096399;23;20018;-91
2024/01/28 01:33:41;;;;;;;13.38;5.05;;;2.60;99.90;;;;;;6096475;23;20014;-91
2024/01/28 01:36:06;;;;;;;13.32;6.50;;;2.60;99.90;;;;;;6096000;23;20014;-90
2024/01/28 01:38:32;;;;;;;15.07;5.90;;;2.60;99.90;;;;;;6120568;23;20105;-90
2024/01/28 01:40:58;;;;;;;11.40;4.55;;;2.60;99.90;;;;;;6096471;23;20013;-91
2024/01/28 01:43:24;;;;;;;15.63;5.85;;;2.50;99.90;;;;;;6120794;23;20021;-90
2024/01/28 01:45:52;;;;;;;18.27;4.55;;;2.50;99.90;;;;;;6096414;23;20017;-90
2024/01/28 01:48:17;;;;;;;19.02;6.05;;;2.50;99.90;;;;;;6120654;23;20018;-91
2024/01/28 01:50:43;;;;;;;9.32;4.28;;;2.50;99.90;;;;;;6120730;23;20337;-91
2024/01/28 01:53:10;;;;;;;13.98;4.97;;;2.50;99.90;;;;;;6096376;23;20021;-90
2024/01/28 01:55:38;;;;;;;15.95;5.25;;;2.50;99.90;;;;;;6120720;23;20021;-91
2024/01/28 01:58:04;;;;;;;11.90;5.20;;;2.50;99.90;;;;;;6120634;23;20056;-90
2024/01/28 02:00:31;;;;;;;15.60;4.60;;;2.50;99.90;;;;;;6096479;23;20068;-90
2024/01/28 02:02:57;;;;;;;11.05;3.67;;;2.50;99.90;;;;;;6096545;23;20014;-90
2024/01/28 02:05:23;;;;;;;14.35;5.07;;;2.50;99.90;;;;;;6120556;23;20014;-90
2024/01/28 02:07:49;;;;;;;11.02;4.30;;;2.50;99.90;;;;;;6120559;23;20025;-90
2024/01/28 02:10:14;;;;;;;12.90;5.88;;;2.50;99.90;;;;;;6096112;23;20081;-90
2024/01/28 02:12:43;;;;;;;16.73;4.82;;;2.40;99.90;;;;;;6096044;23;20010;-91
2024/01/28 02:15:10;;;;;;;16.10;5.03;;;2.40;99.90;;;;;;6120729;23;20081;-90
2024/01/28 02:17:36;;;;;;;10.10;4.32;;;2.40;99.90;;;;;;6095668;23;20014;-90
2024/01/28 02:20:02;;;;;;;16.23;5.18;;;2.40;99.90;;;;;;6120781;23;20096;-90
2024/01/28 02:22:28;;;;;;;13.07;3.85;;;2.40;99.90;;;;;;6096245;23;20041;-90
2024/01/28 02:24:54;;;;;;;12.85;4.72;;;2.40;99.90;;;;;;6095786;23;20017;-90
2024/01/28 02:27:20;;;;;;;12.75;4.53;;;2.40;99.90;;;;;;6095995;23;20014;-90
2024/01/28 02:29:46;;;;;;;14.30;4.97;;;2.30;99.90;;;;;;6121188;23;20016;-90
2024/01/28 02:32:13;;;;;;;11.68;5.20;;;2.30;99.90;;;;;;6122239;23;20010;-90
2024/01/28 02:34:39;;;;;;;13.40;5.30;;;2.30;99.90;;;;;;6096052;23;20014;-91
2024/01/28 02:37:05;;;;;;;19.15;5.80;;;2.30;99.90;;;;;;6096208;23;20020;-90
2024/01/28 02:39:31;;;;;;;14.18;5.30;;;2.30;99.90;;;;;;6096021;23;20636;-90
2024/01/28 02:41:56;;;;;;;14.45;5.57;;;2.20;99.90;;;;;;6096020;23;20050;-90
2024/01/28 02:44:22;;;;;;;15.98;4.85;;;2.20;99.90;;;;;;6096520;23;20355;-90
2024/01/28 02:46:47;;;;;;;15.05;5.63;;;2.20;99.90;;;;;;6120528;23;20014;-91
2024/01/28 02:49:13;;;;;;;12.40;5.45;;;2.20;99.90;;;;;;6120121;23;20018;-90
2024/01/28 02:51:38;;;;;;;9.88;4.72;;;2.20;99.90;;;;;;6095985;23;20010;-90
2024/01/28 02:54:05;;;;;;;13.55;5.30;;;2.20;99.90;;;;;;6120737;23;20124;-90
2024/01/28 02:56:30;;;;;;;15.98;5.85;;;2.20;99.90;;;;;;6120246;23;20016;-91
2024/01/28 02:58:56;;;;;;;15.38;5.25;;;2.20;99.90;;;;;;6120665;23;20092;-90
2024/01/28 03:01:21;;;;;;;9.90;5.20;;;2.30;99.90;;;;;;6123010;23;20017;-90
2024/01/28 03:03:47;;;;;;;13.18;5.10;;;2.20;99.90;;;;;;6147226;23;20018;-90
2024/01/28 03:06:12;;;;;;;13.48;3.88;;;2.20;99.90;;;;;;6124068;23;20010;-91
2024/01/28 03:08:38;;;;;;;10.50;4.20;;;2.20;99.90;;;;;;6123931;23;20046;-90
2024/01/28 03:11:04;;;;;;;13.68;5.40;;;2.20;99.90;;;;;;6097636;23;20447;-90
2024/01/28 03:13:29;;;;;;;19.55;4.63;;;2.30;99.90;;;;;;6121972;23;20080;-90
2024/01/28 03:15:55;;;;;;;12.18;5.28;;;2.30;99.90;;;;;;6122445;23;20113;-90
2024/01/28 03:18:21;;;;;;;15.30;4.93;;;2.30;99.90;;;;;;6123693;23;20018;-90
2024/01/28 03:20:47;;;;;;;10.05;4.30;;;2.30;99.90;;;;;;6097662;23;20456;-90
2024/01/28 03:23:14;;;;;;;15.48;4.53;;;2.40;99.90;;;;;;6122492;23;20021;-89
2024/01/28 03:25:40;;;;;;;10.95;5.03;;;2.40;99.90;;;;;;6121720;23;20084;-90
2024/01/28 03:28:06;;;;;;;17.45;5.63;;;2.30;99.90;;;;;;6097342;23;20476;-89
2024/01/28 03:30:32;;;;;;;11.60;5.45;;;2.40;99.90;;;;;;6098156;23;20010;-90
2024/01/28 03:32:58;;;;;;;15.25;6.13;;;2.40;99.90;;;;;;6123693;23;20021;-90
2024/01/28 03:35:24;;;;;;;12.45;4.85;;;2.40;99.90;;;;;;6124356;23;20046;-90
2024/01/28 03:37:50;;;;;;;14.45;4.88;;;2.40;99.90;;;;;;6122229;23;20025;-89
2024/01/28 03:40:16;;;;;;;15.60;5.22;;;2.30;99.90;;;;;;6123575;23;20024;-90
2024/01/28 03:42:41;;;;;;;17.15;4.57;;;2.40;99.90;;;;;;6097621;23;20014;-90
2024/01/28 03:45:09;;;;;;;15.07;5.53;;;2.30;99.90;;;;;;6121468;23;20010;-90
2024/01/28 03:47:35;;;;;;;15.10;5.55;;;2.40;99.90;;;;;;6097445;23;20021;-90
2024/01/28 03:50:02;;;;;;;12.98;5.05;;;2.40;99.90;;;;;;6097848;23;20014;-89
2024/01/28 03:52:27;;;;;;;15.93;5.55;;;2.40;99.90;;;;;;6097184;23;20010;-90
2024/01/28 03:54:53;;;;;;;11.45;4.28;;;2.40;99.90;;;;;;6096991;23;20017;-90
2024/01/28 03:57:19;;;;;;;13.10;5.13;;;2.40;99.90;;;;;;6121955;23;20018;-90
2024/01/28 03:59:44;;;;;;;12.68;5.07;;;2.40;99.90;;;;;;6097143;23;20334;-89
2024/01/28 04:02:10;;;;;;;13.65;4.90;;;2.40;99.90;;;;;;6097405;23;20014;-90
2024/01/28 04:04:35;;;;;;;13.75;5.47;;;2.40;99.90;;;;;;6123422;23;20021;-90
2024/01/28 04:07:01;;;;;;;16.30;5.25;;;2.40;99.90;;;;;;6146535;23;20010;-90
2024/01/28 04:09:27;;;;;;;12.75;4.65;;;2.40;99.90;;;;;;6096767;23;20014;-90
2024/01/28 04:11:52;;;;;;;12.65;4.50;;;2.40;99.90;;;;;;6121601;23;20010;-90
2024/01/28 04:14:18;;;;;;;17.13;4.53;;;2.40;99.90;;;;;;6122096;23;20017;-91
2024/01/28 04:16:44;;;;;;;15.95;4.80;;;2.40;99.90;;;;;;6121195;23;20085;-91
2024/01/28 04:19:09;;;;;;;12.65;5.13;;;2.40;99.90;;;;;;6121417;23;20478;-90
2024/01/28 04:21:35;;;;;;;13.23;4.22;;;2.40;99.90;;;;;;6097406;23;20045;-89
2024/01/28 04:24:01;;;;;;;10.05;4.38;;;2.40;99.90;;;;;;6121800;23;20776;-89
2024/01/28 04:26:27;;;;;;;18.27;4.95;;;2.40;99.90;;;;;;6097014;23;20053;-90
2024/01/28 04:28:52;;;;;;;13.20;5.10;;;2.40;99.90;;;;;;6121455;23;20082;-90
2024/01/28 04:31:19;;;;;;;11.52;3.95;;;2.40;99.90;;;;;;6123527;23;20006;-90
2024/01/28 04:33:45;;;;;;;13.27;4.38;;;2.40;99.90;;;;;;6096602;23;20025;-89
2024/01/28 04:36:11;;;;;;;11.60;5.00;;;2.40;99.90;;;;;;6121534;23;20018;-90
2024/01/28 04:38:36;;;;;;;16.92;5.53;;;2.30;99.90;;;;;;6096861;23;20105;-90
2024/01/28 04:41:03;;;;;;;15.32;5.70;;;2.30;99.90;;;;;;6121264;23;20077;-90
2024/01/28 04:43:28;;;;;;;12.85;4.80;;;2.30;99.90;;;;;;6121588;23;20101;-90
2024/01/28 04:45:54;;;;;;;10.98;4.97;;;2.30;99.90;;;;;;6121329;23;20377;-90
2024/01/28 04:48:20;;;;;;;17.08;6.30;;;2.30;99.90;;;;;;6121324;23;20022;-90
2024/01/28 04:50:46;;;;;;;15.02;4.80;;;2.20;99.90;;;;;;6121313;23;20006;-90
2024/01/28 04:53:12;;;;;;;13.18;4.45;;;2.20;99.90;;;;;;6096696;23;20096;-90
2024/01/28 04:55:37;;;;;;;12.18;4.82;;;2.20;99.90;;;;;;6121180;23;20010;-90
2024/01/28 04:58:03;;;;;;;11.88;5.25;;;2.20;99.90;;;;;;6120929;23;20017;-90
2024/01/28 05:00:29;;;;;;;14.25;6.03;;;2.20;99.90;;;;;;6097129;23;20018;-89
2024/01/28 05:02:56;;;;;;;12.93;4.82;;;2.20;99.90;;;;;;6096929;23;20022;-90
2024/01/28 05:05:22;;;;;;;16.20;4.22;;;2.10;99.90;;;;;;6121065;23;20025;-90
2024/01/28 05:07:48;;;;;;;14.25;5.22;;;2.10;99.90;;;;;;6096532;23;20464;-90
2024/01/28 05:10:14;;;;;;;14.07;5.78;;;2.10;99.90;;;;;;6122942;23;20010;-90
2024/01/28 05:12:40;;;;;;;10.32;4.32;;;2.10;99.90;;;;;;6120774;23;20329;-90
2024/01/28 05:15:07;;;;;;;18.50;5.43;;;2.10;99.90;;;;;;6120719;23;20018;-90
2024/01/28 05:17:35;;;;;;;14.70;5.32;;;2.00;99.90;;;;;;6096412;23;20021;-90
2024/01/28 05:20:02;;;;;;;17.50;5.68;;;2.00;99.90;;;;;;6096634;23;20018;-90
2024/01/28 05:22:28;;;;;;;15.70;5.38;;;2.00;99.90;;;;;;6120849;23;20018;-90
2024/01/28 05:24:54;;;;;;;14.52;6.18;;;2.00;99.90;;;;;;6121180;23;20014;-90
2024/01/28 05:27:20;;;;;;;12.48;5.15;;;2.00;99.90;;;;;;6122806;23;20021;-90
2024/01/28 05:29:45;;;;;;;12.52;4.90;;;2.00;99.90;;;;;;6121261;23;20014;-90
2024/01/28 05:32:12;;;;;;;11.80;5.45;;;2.00;99.90;;;;;;6120701;23;20126;-90
2024/01/28 05:34:38;;;;;;;14.32;6.05;;;2.00;99.90;;;;;;6120785;23;20077;-90
2024/01/28 05:37:03;;;;;;;18.90;6.60;;;2.00;99.90;;;;;;6120739;23;20018;-90
2024/01/28 05:39:29;;;;;;;12.02;5.95;;;2.00;99.90;;;;;;6120718;23;20018;-90
2024/01/28 05:41:54;;;;;;;16.70;6.03;;;2.00;99.90;;;;;;6121518;23;20475;-90
2024/01/28 05:44:20;;;;;;;12.70;5.68;;;1.90;99.90;;;;;;6121047;23;20525;-90
2024/01/28 05:46:46;;;;;;;12.38;4.90;;;2.00;99.90;;;;;;6096258;23;20014;-91
2024/01/28 05:49:12;;;;;;;13.45;5.45;;;1.90;99.90;;;;;;6121079;23;20006;-91
2024/01/28 05:51:40;;;;;;;15.80;5.32;;;1.90;99.90;;;;;;6097875;23;20009;-91
2024/01/28 05:54:06;;;;;;;14.77;4.60;;;1.90;99.90;;;;;;6097772;23;20028;-90
2024/01/28 05:56:32;;;;;;;11.88;5.47;;;1.90;99.90;;;;;;6097494;23;20101;-90
2024/01/28 05:58:57;;;;;;;13.25;6.35;;;1.90;99.90;;;;;;6120364;23;20771;-91
2024/01/28 06:01:24;;;;;;;16.08;5.80;;;1.80;99.90;;;;;;6096932;23;20502;-90
2024/01/28 06:03:50;;;;;;;20.25;5.50;;;1.80;99.90;;;;;;6096256;23;20006;-90
2024/01/28 06:06:15;;;;;;;15.65;5.78;;;1.80;99.90;;;;;;6120882;23;20053;-90
2024/01/28 06:08:41;;;;;;;13.40;5.13;;;1.80;99.90;;;;;;6120691;23;20459;-90
2024/01/28 06:11:07;;;;;;;12.95;5.20;;;1.80;99.90;;;;;;6120947;23;20010;-89
2024/01/28 06:13:33;;;;;;;14.48;4.65;;;1.80;99.90;;;;;;6121943;23;20104;-90
2024/01/28 06:15:59;;;;;;;13.75;4.25;;;1.80;99.90;;;;;;6122282;23;20014;-89
2024/01/28 06:18:25;;;;;;;11.35;4.55;;;1.80;99.90;;;;;;6121940;23;20392;-91
2024/01/28 06:20:51;;;;;;;11.10;4.40;;;1.70;99.90;;;;;;6122057;23;20483;-90
2024/01/28 06:23:16;;;;;;;12.98;4.85;;;1.70;99.90;;;;;;6095497;23;20014;-90
2024/01/28 06:25:42;;;;;;;13.15;5.63;;;1.70;99.90;;;;;;6121526;23;20378;-89
2024/01/28 06:28:08;;;;;;;12.23;5.90;;;1.70;99.90;;;;;;6120110;23;20038;-90
2024/01/28 06:30:35;;;;;;;13.90;5.55;;;1.70;99.90;;;;;;6120868;23;20010;-90
2024/01/28 06:33:04;;;;;;;13.05;4.55;;;1.70;99.90;;;;;;6095515;23;20695;-90
2024/01/28 06:35:30;;;;;;;18.90;4.45;;;1.70;99.90;;;;;;6095478;23;20073;-87
2024/01/28 06:37:55;;;;;;;8.57;4.22;;;1.70;99.90;;;;;;6121618;23;20014;-87
2024/01/28 06:40:21;;;;;;;12.32;5.45;;;1.70;99.90;;;;;;6095284;23;20518;-87
2024/01/28 06:42:47;;;;;;;15.77;4.90;;;1.60;99.90;;;;;;6096059;23;20018;-90
2024/01/28 06:45:12;;;;;;;14.18;6.38;;;1.60;99.90;;;;;;6119319;23;20021;-90
2024/01/28 06:47:38;;;;;;;13.60;5.70;;;1.60;99.90;;;;;;6120415;23;20348;-89
2024/01/28 06:50:04;;;;;;;14.68;5.15;;;1.60;99.90;;;;;;6120220;23;20014;-89
2024/01/28 06:52:29;;;;;;;17.30;6.00;;;1.60;99.90;;;;;;6119119;23;20010;-89
2024/01/28 06:54:55;;;;;;;15.05;4.85;;;1.60;99.90;;;;;;6119738;23;20069;-88
2024/01/28 06:57:21;;;;;;;13.95;5.22;;;1.60;99.90;;;;;;6095257;23;20042;-90
2024/01/28 06:59:46;;;;;;;14.25;5.35;;;1.50;99.90;;;;;;6121665;23;20377;-89
2024/01/28 07:02:12;;;;;;;13.18;5.25;;;1.50;99.90;;;;;;6120159;23;20021;-90
2024/01/28 07:04:38;;;;;;;18.90;6.22;;;1.50;99.90;;;;;;6121602;23;20085;-90
2024/01/28 07:07:04;;;;;;;13.90;5.10;;;1.50;99.90;;;;;;6122237;23;20018;-90
2024/01/28 07:09:30;;;;;;;11.15;4.28;;;1.50;99.90;;;;;;6095672;23;20021;-90
2024/01/28 07:11:56;;;;;;;8.30;3.95;;;1.50;99.90;;;;;;6095500;23;20024;-90
2024/01/28 07:14:22;;;;;;;11.38;5.13;;;1.50;99.90;;;;;;6119856;23;20436;-90
2024/01/28 07:16:49;;;;;;;13.25;5.30;;;1.50;99.90;;;;;;6095530;23;20152;-89
2024/01/28 07:19:15;;;;;;;10.93;4.63;;;1.50;99.90;;;;;;6119986;23;20018;-89
2024/01/28 07:21:40;;;;;;;12.75;4.70;;;1.50;99.90;;;;;;6096134;23;20020;-90
2024/01/28 07:24:06;;;;;;;14.98;4.65;;;1.50;99.90;;;;;;6095423;23;20400;-90
2024/01/28 07:26:32;;;;;;;11.60;4.57;;;1.50;99.90;;;;;;6121831;23;20041;-90
2024/01/28 07:28:57;;;;;;;11.45;4.25;;;1.50;99.90;;;;;;6095795;23;20527;-90
2024/01/28 07:31:23;;;;;;;14.35;4.45;;;1.50;99.90;;;;;;6119957;23;20028;-90
2024/01/28 07:33:49;;;;;;;13.95;4.93;;;1.50;99.90;;;;;;6095421;23;20471;-89
2024/01/28 07:36:16;;;;;;;15.30;5.38;;;1.50;99.90;;;;;;6095904;23;20013;-89
2024/01/28 07:38:42;;;;;;;12.77;4.25;;;1.50;99.90;;;;;;6095647;23;20029;-90
2024/01/28 07:41:14;;;;;;;12.55;4.00;;;1.50;99.90;;;;;;6121811;23;20017;-89
2024/01/28 07:43:40;;;;;;;13.80;5.53;;;1.50;99.90;;;;;;6096153;23;20010;-89
2024/01/28 07:46:07;;;;;;;10.63;5.20;;;1.50;99.90;;;;;;6122375;23;20463;-89
2024/01/28 07:48:32;;;;;;;14.80;5.05;;;1.50;99.90;;;;;;6097153;23;20018;-89
2024/01/28 07:50:58;;;;;;;14.50;5.35;;;1.50;99.90;;;;;;6096879;23;20017;-90
2024/01/28 07:53:23;;;;;;;14.35;5.03;;;1.50;99.90;;;;;;6121063;23;20014;-90
2024/01/28 07:55:49;;;;;;;11.77;5.03;;;1.50;99.90;;;;;;6097496;23;20348;-89
2024/01/28 07:58:15;;;;;;;11.10;4.65;;;1.50;99.90;;;;;;6123649;23;20056;-90
2024/01/28 08:00:40;;;;;;;9.57;3.28;;;1.60;99.90;;;;;;6121605;23;20014;-89
2024/01/28 08:03:06;;;;;;;12.27;3.65;;;1.60;99.90;;;;;;6121838;23;20017;-90
2024/01/28 08:05:31;;;;;;;11.70;3.47;;;1.60;99.90;;;;;;6096574;23;20364;-90
2024/01/28 08:07:57;;;;;;;14.50;4.90;;;1.60;99.90;;;;;;6097744;23;20053;-89
2024/01/28 08:10:24;;;;;;;13.60;4.70;;;1.60;99.90;;;;;;6098890;23;20010;-89
2024/01/28 08:12:50;;;;;;;9.48;4.43;;;1.60;99.90;;;;;;6128231;23;20618;-90
2024/01/28 08:15:15;;;;;;;12.07;4.38;;;1.70;99.90;;;;;;6126221;23;20021;-90
2024/01/28 08:17:41;;;;;;;11.60;4.13;;;1.70;99.90;;;;;;6097094;23;20028;-90
2024/01/28 08:20:07;;;;;;;9.23;3.42;;;1.70;99.90;;;;;;6121661;23;20022;-89
2024/01/28 08:22:33;;;;;;;11.65;4.80;;;1.80;99.90;;;;;;6097443;23;20010;-89
2024/01/28 08:24:59;;;;;;;17.02;4.60;;;1.80;99.90;;;;;;6096265;23;20080;-91
2024/01/28 08:27:24;;;;;;;9.32;3.97;;;1.90;99.90;;;;;;6096204;23;20010;-91
2024/01/28 08:29:50;;;;;;;7.88;3.10;;;1.90;99.90;;;;;;6096458;23;20006;-90
2024/01/28 08:32:16;;;;;;;7.90;2.88;;;1.90;99.90;;;;;;6123329;23;20395;-90
2024/01/28 08:34:41;;;;;;;9.80;3.85;;;2.00;99.90;;;;;;6121237;23;20017;-92
2024/01/28 08:37:07;;;;;;;11.70;4.30;;;2.00;99.90;;;;;;6122010;23;20014;-89
2024/01/28 08:39:32;;;;;;;8.75;3.67;;;2.10;99.90;;;;;;6121462;23;20503;-90
2024/01/28 08:41:59;;;;;;;8.60;3.72;;;2.10;99.90;;;;;;6121587;23;20470;-91
2024/01/28 08:44:25;;;;;;;14.05;4.10;;;2.20;99.90;;;;;;6121721;23;20344;-91
2024/01/28 08:46:51;;;;;;;9.55;3.95;;;2.20;99.90;;;;;;6096691;23;20025;-90
2024/01/28 08:49:17;;;;;;;12.30;4.68;;;2.30;99.90;;;;;;6096807;23;20089;-89
2024/01/28 08:51:42;;;;;;;9.77;3.97;;;2.30;99.90;;;;;;6096339;23;20045;-90
2024/01/28 08:54:08;;;;;;;14.02;3.95;;;2.30;99.90;;;;;;6096272;23;20018;-91
2024/01/28 08:56:34;;;;;;;10.85;4.38;;;2.40;99.90;;;;;;6095895;23;20014;-90
2024/01/28 08:58:59;;;;;;;7.65;2.90;;;2.50;99.90;;;;;;6095810;23;20396;-90
2024/01/28 09:01:25;;;;;;;14.13;4.68;;;2.50;99.90;;;;;;6120228;23;20018;-89
2024/01/28 09:03:51;;;;;;;10.93;3.75;;;2.60;99.90;;;;;;6120753;23;20021;-90
2024/01/28 09:06:16;;;;;;;11.65;4.03;;;2.60;99.90;;;;;;6096146;23;20093;-90
2024/01/28 09:08:42;;;;;;;10.63;4.45;;;2.70;99.90;;;;;;6095451;23;20025;-89
2024/01/28 09:11:09;;;;;;;13.27;4.80;;;2.70;99.90;;;;;;6119640;23;20034;-89
2024/01/28 09:13:34;;;;;;;11.90;4.00;;;2.80;99.90;;;;;;6095324;23;20014;-90
2024/01/28 09:16:00;;;;;;;12.98;3.45;;;2.90;99.90;;;;;;6121805;23;20344;-92
2024/01/28 09:18:25;;;;;;;12.70;3.90;;;2.90;99.90;;;;;;6122321;23;20018;-90
2024/01/28 09:20:51;;;;;;;11.10;3.90;;;3.00;99.90;;;;;;6093069;23;20084;-89
2024/01/28 09:23:17;;;;;;;10.63;3.65;;;3.00;99.90;;;;;;6093692;23;20018;-90
2024/01/28 09:25:43;;;;;;;11.07;3.65;;;3.10;99.90;;;;;;6094022;23;20018;-89
2024/01/28 09:28:09;;;;;;;10.35;3.22;;;3.10;99.90;;;;;;6116627;23;20049;-90
2024/01/28 09:30:34;;;;;;;9.90;3.45;;;3.20;99.90;;;;;;6117850;23;20389;-89
2024/01/28 09:33:01;;;;;;;9.68;4.35;;;3.30;99.90;;;;;;6119442;23;20010;-89
2024/01/28 09:35:27;;;;;;;8.35;2.97;;;3.40;99.90;;;;;;6092494;23;20088;-90
2024/01/28 09:37:54;;;;;;;12.57;3.78;;;3.50;99.90;;;;;;6118182;23;20045;-90
2024/01/28 09:40:20;;;;;;;11.15;3.05;;;3.60;99.90;;;;;;6119838;23;20088;-89
2024/01/28 09:43:21;;;;;;;9.52;3.40;;;3.70;99.90;;;;;;6119194;23;20045;-90
2024/01/28 09:45:47;;;;;;;8.55;2.63;;;3.80;99.90;;;;;;6119587;23;20018;-91
2024/01/28 09:48:12;;;;;;;11.75;3.10;;;3.90;99.90;;;;;;6095938;23;20087;-91
2024/01/28 09:50:39;;;;;;;10.55;3.35;;;4.00;99.90;;;;;;6118753;23;20014;-91
2024/01/28 09:53:05;;;;;;;9.95;3.17;;;4.00;99.90;;;;;;6095432;23;20010;-91
2024/01/28 09:55:31;;;;;;;9.32;3.53;;;4.10;99.90;;;;;;6119396;23;20576;-91
2024/01/28 09:57:56;;;;;;;12.23;3.35;;;4.20;99.90;;;;;;6119785;23;20010;-91
2024/01/28 10:00:24;;;;;;;10.35;3.75;;;4.30;99.90;;;;;;6095578;23;20456;-91
2024/01/28 10:02:50;;;;;;;9.85;3.58;;;4.40;99.90;;;;;;6096202;23;20010;-90
2024/01/28 10:05:15;;;;;;;11.00;3.90;;;4.40;99.90;;;;;;6095327;23;20022;-91
2024/01/28 10:07:47;;;;;;;9.07;3.13;;;4.60;99.90;;;;;;6120197;23;20010;-90
2024/01/28 10:10:15;;;;;;;10.23;3.47;;;4.60;99.90;;;;;;6095585;23;20014;-90
2024/01/28 10:12:41;;;;;;;11.07;3.53;;;4.70;99.90;;;;;;6095449;23;20014;-90
2024/01/28 10:15:17;;;;;;;10.05;3.17;;;4.80;99.90;;;;;;6121186;23;20021;-90
2024/01/28 10:17:47;;;;;;;12.05;4.13;;;4.90;99.90;;;;;;6120123;23;20022;-91
2024/01/28 10:20:18;;;;;;;5.80;2.53;;;5.00;99.90;;;;;;6095342;23;20060;-91
2024/01/28 10:22:47;;;;;;;7.10;2.70;;;5.10;99.90;;;;;;6120439;23;20088;-91
2024/01/28 10:25:15;;;;;;;7.10;2.72;;;5.20;99.90;;;;;;6096120;23;20020;-90
2024/01/28 10:27:42;;;;;;;11.70;3.58;;;5.30;99.90;;;;;;6096086;23;20021;-91
2024/01/28 10:30:09;;;;;;;8.88;3.70;;;5.40;99.90;;;;;;6120720;23;20014;-90
2024/01/28 10:32:34;;;;;;;9.55;3.20;;;5.50;99.90;;;;;;6095465;23;20013;-90
2024/01/28 10:35:00;;;;;;;8.95;2.83;;;5.60;99.90;;;;;;6095233;23;20014;-91
2024/01/28 10:37:32;;;;;;;8.68;3.10;;;5.80;99.90;;;;;;6096121;23;20033;-91
2024/01/28 10:40:05;;;;;;;12.27;3.27;;;5.90;99.90;;;;;;6120910;23;20122;-90
2024/01/28 10:42:39;;;;;;;13.13;3.70;;;6.10;99.90;;;;;;6120149;23;20018;-90
2024/01/28 10:45:18;;;;;;;7.15;2.40;;;6.20;99.90;;;;;;6095875;23;20014;-90
2024/01/28 10:48:05;;;;;;;7.43;2.60;;;6.40;99.90;;;;;;6120092;23;20025;-91
2024/01/28 10:50:32;;;;;;;8.77;2.90;;;6.50;99.90;;;;;;6120335;23;20010;-91
2024/01/28 10:52:59;;;;;;;11.98;3.10;;;6.60;99.90;;;;;;6094047;23;20049;-91
2024/01/28 10:55:26;;;;;;;8.77;3.53;;;6.70;99.90;;;;;;6095059;23;20085;-91
2024/01/28 10:57:53;;;;;;;9.90;3.30;;;6.80;99.90;;;;;;6121788;23;20025;-90
2024/01/28 11:00:20;;;;;;;8.10;2.60;;;7.00;99.90;;;;;;6119841;23;20017;-91
2024/01/28 11:02:49;;;;;;;10.60;3.35;;;7.10;99.90;;;;;;6120386;23;20462;-91
2024/01/28 11:05:15;;;;;;;11.95;3.35;;;7.30;99.90;;;;;;6119909;23;20045;-91
2024/01/28 11:07:41;;;;;;;8.25;3.45;;;7.40;99.90;;;;;;6120298;23;20025;-91
2024/01/28 11:10:08;;;;;;;7.50;3.03;;;7.60;99.90;;;;;;6120020;23;20090;-91
2024/01/28 11:12:35;;;;;;;12.23;3.95;;;7.70;99.90;;;;;;6095087;23;20132;-92
2024/01/28 11:15:01;;;;;;;9.00;2.72;;;7.90;99.90;;;;;;6118783;23;20010;-91
2024/01/28 11:17:32;;;;;;;7.22;3.03;;;8.10;99.90;;;;;;6120513;23;20478;-92
2024/01/28 11:20:17;;;;;;;8.90;3.75;;;8.30;99.90;;;;;;6095542;23;20049;-91
2024/01/28 11:22:49;;;;;;;12.52;3.28;;;8.50;99.90;;;;;;6121409;23;20018;-91
2024/01/28 11:25:20;;;;;;;6.95;2.55;;;8.70;99.90;;;;;;6122056;23;20010;-91
2024/01/28 11:28:00;;;;;;;9.25;2.97;;;8.90;99.90;;;;;;6122179;23;20017;-91
2024/01/28 11:30:27;;;;;;;8.50;3.13;;;9.00;99.90;;;;;;6097796;23;20025;-91
2024/01/28 11:33:16;;;;;;;11.80;2.75;;;9.30;99.90;;;;;;6097327;23;20010;-91
2024/01/28 11:35:45;;;;;;;6.50;2.50;;;9.50;99.90;;;;;;6120387;23;20024;-92
2024/01/28 11:38:19;;;;;;;8.95;2.67;;;9.60;99.90;;;;;;6097814;23;20018;-92
2024/01/28 11:40:48;;;;;;;8.60;2.78;;;9.70;99.90;;;;;;6097747;23;20084;-92
2024/01/28 11:43:13;;;;;;;6.97;2.50;;;9.90;99.90;;;;;;6097720;23;20014;-91
2024/01/28 11:45:39;;;;;;;8.73;2.72;;;10.00;99.90;;;;;;6121464;23;20010;-92
2024/01/28 11:48:10;;;;;;;6.93;2.42;;;10.20;99.90;;;;;;6097248;23;20101;-91
2024/01/28 11:50:36;;;;;;;7.03;2.00;;;10.40;99.90;;;;;;6097527;23;20038;-92
2024/01/28 11:53:05;;;;;;;8.50;2.05;;;10.50;99.90;;;;;;6097329;23;20064;-91
2024/01/28 11:55:31;;;;;;;6.07;2.42;;;10.80;99.90;;;;;;6123136;23;20064;-91
2024/01/28 11:57:57;;;;;;;8.93;2.55;;;11.00;99.90;;;;;;6123779;23;20014;-90
2024/01/28 12:00:25;;;;;;;7.65;2.22;;;11.20;99.90;;;;;;6121622;23;20571;-92
2024/01/28 12:02:51;;;;;;;7.63;2.60;;;11.50;99.90;;;;;;6122037;23;20014;-91
2024/01/28 12:05:17;;;;;;;5.57;1.98;;;11.60;99.90;;;;;;6121818;23;20021;-91
2024/01/28 12:07:42;;;;;;;8.15;2.45;;;11.80;99.90;;;;;;6097258;23;20025;-92
2024/01/28 12:10:12;;;;;;;5.95;2.28;;;12.00;99.90;;;;;;6097717;23;20021;-92
2024/01/28 12:12:40;;;;;;;7.43;2.60;;;12.20;99.90;;;;;;6122412;23;20012;-92
2024/01/28 12:15:07;;;;;;;11.43;2.35;;;12.60;99.70;;;;;;6096844;23;20110;-92
2024/01/28 12:17:40;;;;;;;8.07;2.30;;;12.70;95.90;;;;;;6121881;23;20514;-93
2024/01/28 12:20:06;;;;;;;;;;;13.10;94.50;;;;;;6122468;23;20018;-92
2024/01/28 12:22:39;;;;;;;6.43;1.90;;;13.20;86.80;;;;;;6097327;23;19913;-92
2024/01/28 12:25:11;;;;;;;5.70;2.00;;;13.30;93.60;;;;;;6097619;23;20025;-92
2024/01/28 12:27:41;;;;;;;9.48;3.42;;;13.50;96.70;;;;;;6096993;23;20479;-92
2024/01/28 12:30:10;;;;;;;8.48;2.63;;;13.90;84.40;;;;;;6096959;23;20018;-92
2024/01/28 12:32:39;;;;;;;7.07;2.20;;;14.80;90.40;;;;;;6097492;23;20068;-92
2024/01/28 12:35:09;;;;;;;5.28;1.80;;;15.90;86.60;;;;;;6096909;23;20021;-92
2024/01/28 12:37:36;;;;;;;8.48;2.63;;;17.20;78.60;;;;;;6097393;23;20017;-91
2024/01/28 12:40:02;;;;;;;7.07;2.17;;;18.60;74.30;;;;;;6096878;23;20097;-89
2024/01/28 12:42:31;;;;;;;8.30;3.17;;;19.90;70.00;;;;;;6122832;23;20022;-90
2024/01/28 12:44:57;;;;;;;8.65;2.90;;;20.80;66.70;;;;;;6120484;23;20068;-90